sensor_id;sensor_type;location;lat;lon;timestamp;pressure;altitude;pressure_sealevel;temperature;humidity
4410;BME280;2218;51.408;7.208;2023-03-01T00:01:41;101101.09;;;17.66;27.09
4410;BME280;2218;51.408;7.208;2023-03-01T00:04:07;101105.47;;;17.65;27.26
4410;BME280;2218;51.408;7.208;2023-03-01T00:06:34;101102.06;;;17.63;27.52
4410;BME280;2218;51.408;7.208;2023-03-01T00:09:02;101100.34;;;17.62;27.31
4410;BME280;2218;51.408;7.208;2023-03-01T00:11:32;101094.25;;;17.62;27.53
4410;BME280;2218;51.408;7.208;2023-03-01T00:14:02;101093.41;;;17.61;27.03
4410;BME280;2218;51.408;7.208;2023-03-01T00:16:33;101091.66;;;17.60;27.34
4410;BME280;2218;51.408;7.208;2023-03-01T00:19:01;101095.22;;;17.59;27.57
4410;BME280;2218;51.408;7.208;2023-03-01T00:21:28;101093.56;;;17.56;27.38
4410;BME280;2218;51.408;7.208;2023-03-01T00:23:56;101097.06;;;17.57;27.61
4410;BME280;2218;51.408;7.208;2023-03-01T00:26:25;101080.44;;;17.56;27.26
4410;BME280;2218;51.408;7.208;2023-03-01T00:28:54;101083.09;;;17.55;27.56
4410;BME280;2218;51.408;7.208;2023-03-01T00:31:25;101082.25;;;17.54;27.57
4410;BME280;2218;51.408;7.208;2023-03-01T00:33:54;101080.53;;;17.53;27.46
4410;BME280;2218;51.408;7.208;2023-03-01T00:36:24;101084.09;;;17.52;27.50
4410;BME280;2218;51.408;7.208;2023-03-01T00:38:52;101077.13;;;17.51;27.57
4410;BME280;2218;51.408;7.208;2023-03-01T00:41:20;101076.28;;;17.51;27.41
4410;BME280;2218;51.408;7.208;2023-03-01T00:43:49;101079.81;;;17.50;27.58
4410;BME280;2218;51.408;7.208;2023-03-01T00:46:20;101070.28;;;17.47;27.52
4410;BME280;2218;51.408;7.208;2023-03-01T00:48:49;101065.03;;;17.47;27.82
4410;BME280;2218;51.408;7.208;2023-03-01T00:51:19;101056.31;;;17.45;27.64
4410;BME280;2218;51.408;7.208;2023-03-01T00:53:47;101058.09;;;17.45;27.48
4410;BME280;2218;51.408;7.208;2023-03-01T00:56:16;101052.84;;;17.45;27.52
4410;BME280;2218;51.408;7.208;2023-03-01T00:58:43;101050.22;;;17.45;27.35
4410;BME280;2218;51.408;7.208;2023-03-01T01:01:13;101048.59;;;17.42;27.37
4410;BME280;2218;51.408;7.208;2023-03-01T01:03:47;101060.88;;;17.42;27.45
4410;BME280;2218;51.408;7.208;2023-03-01T01:06:17;101050.41;;;17.40;27.46
4410;BME280;2218;51.408;7.208;2023-03-01T01:08:44;101046.94;;;17.40;27.74
4410;BME280;2218;51.408;7.208;2023-03-01T01:11:12;101044.38;;;17.38;27.55
4410;BME280;2218;51.408;7.208;2023-03-01T01:13:40;101049.63;;;17.38;27.69
4410;BME280;2218;51.408;7.208;2023-03-01T01:16:08;101051.41;;;17.38;27.71
4410;BME280;2218;51.408;7.208;2023-03-01T01:18:35;101043.53;;;17.38;27.84
4410;BME280;2218;51.408;7.208;2023-03-01T01:21:09;101037.47;;;17.36;27.78
4410;BME280;2218;51.408;7.208;2023-03-01T01:23:38;101033.97;;;17.35;27.45
4410;BME280;2218;51.408;7.208;2023-03-01T01:26:07;101033.97;;;17.35;27.82
4410;BME280;2218;51.408;7.208;2023-03-01T01:28:34;101031.41;;;17.34;27.60
4410;BME280;2218;51.408;7.208;2023-03-01T01:31:03;101028.78;;;17.34;27.78
4410;BME280;2218;51.408;7.208;2023-03-01T01:33:30;101028.00;;;17.31;27.64
4410;BME280;2218;51.408;7.208;2023-03-01T01:35:57;101023.66;;;17.30;27.80
4410;BME280;2218;51.408;7.208;2023-03-01T01:38:26;101025.41;;;17.30;27.85
4410;BME280;2218;51.408;7.208;2023-03-01T01:40:53;101023.72;;;17.29;27.43
4410;BME280;2218;51.408;7.208;2023-03-01T01:43:24;101020.16;;;17.30;27.96
4410;BME280;2218;51.408;7.208;2023-03-01T01:45:54;101019.19;;;17.33;27.56
4410;BME280;2218;51.408;7.208;2023-03-01T01:48:32;101026.16;;;17.34;27.96
4410;BME280;2218;51.408;7.208;2023-03-01T01:51:11;101021.63;;;17.37;27.58
4410;BME280;2218;51.408;7.208;2023-03-01T01:53:41;101018.81;;;17.42;27.44
4410;BME280;2218;51.408;7.208;2023-03-01T01:56:12;101016.97;;;17.44;27.30
4410;BME280;2218;51.408;7.208;2023-03-01T01:58:43;101017.72;;;17.47;27.41
4410;BME280;2218;51.408;7.208;2023-03-01T02:01:11;101022.84;;;17.50;27.31
4410;BME280;2218;51.408;7.208;2023-03-01T02:03:42;101013.97;;;17.53;27.23
4410;BME280;2218;51.408;7.208;2023-03-01T02:06:18;101013.06;;;17.54;27.15
4410;BME280;2218;51.408;7.208;2023-03-01T02:08:50;101002.44;;;17.57;27.27
4410;BME280;2218;51.408;7.208;2023-03-01T02:11:20;101005.84;;;17.59;27.15
4410;BME280;2218;51.408;7.208;2023-03-01T02:13:48;101012.78;;;17.60;26.93
4410;BME280;2218;51.408;7.208;2023-03-01T02:16:17;101000.47;;;17.62;27.32
4410;BME280;2218;51.408;7.208;2023-03-01T02:18:45;100996.91;;;17.63;27.11
4410;BME280;2218;51.408;7.208;2023-03-01T02:21:29;101002.16;;;17.63;27.01
4410;BME280;2218;51.408;7.208;2023-03-01T02:24:10;100997.69;;;17.65;27.18
4410;BME280;2218;51.408;7.208;2023-03-01T02:26:47;101000.31;;;17.65;27.34
4410;BME280;2218;51.408;7.208;2023-03-01T02:29:17;100996.78;;;17.66;27.25
4410;BME280;2218;51.408;7.208;2023-03-01T02:31:44;100993.22;;;17.67;27.22
4410;BME280;2218;51.408;7.208;2023-03-01T02:34:17;100991.44;;;17.68;27.22
4410;BME280;2218;51.408;7.208;2023-03-01T02:36:48;100992.31;;;17.68;27.28
4410;BME280;2218;51.408;7.208;2023-03-01T02:39:23;100992.22;;;17.70;26.94
4410;BME280;2218;51.408;7.208;2023-03-01T02:41:54;100998.38;;;17.70;27.12
4410;BME280;2218;51.408;7.208;2023-03-01T02:44:24;100996.63;;;17.69;27.14
4410;BME280;2218;51.408;7.208;2023-03-01T02:46:53;100994.81;;;17.71;27.28
4410;BME280;2218;51.408;7.208;2023-03-01T02:49:25;101000.06;;;17.71;27.18
4410;BME280;2218;51.408;7.208;2023-03-01T02:52:27;100997.41;;;17.73;27.22
4410;BME280;2218;51.408;7.208;2023-03-01T02:55:03;100998.25;;;17.73;26.94
4410;BME280;2218;51.408;7.208;2023-03-01T02:57:36;101003.41;;;17.76;27.11
4410;BME280;2218;51.408;7.208;2023-03-01T03:00:11;100997.31;;;17.74;27.08
4410;BME280;2218;51.408;7.208;2023-03-01T03:02:45;101003.41;;;17.76;27.16
4410;BME280;2218;51.408;7.208;2023-03-01T03:05:20;100992.88;;;17.76;27.09
4410;BME280;2218;51.408;7.208;2023-03-01T03:07:52;100994.66;;;17.76;27.11
4410;BME280;2218;51.408;7.208;2023-03-01T03:10:22;100987.63;;;17.76;27.17
4410;BME280;2218;51.408;7.208;2023-03-01T03:12:50;100993.66;;;17.78;27.33
4410;BME280;2218;51.408;7.208;2023-03-01T03:15:20;100988.41;;;17.78;27.00
4410;BME280;2218;51.408;7.208;2023-03-01T03:17:49;100990.94;;;17.80;27.02
4410;BME280;2218;51.408;7.208;2023-03-01T03:20:20;100979.66;;;17.78;27.00
4410;BME280;2218;51.408;7.208;2023-03-01T03:22:52;100982.16;;;17.81;27.08
4410;BME280;2218;51.408;7.208;2023-03-01T03:25:21;100994.47;;;17.80;27.00
4410;BME280;2218;51.408;7.208;2023-03-01T03:27:51;100989.19;;;17.80;27.32
4410;BME280;2218;51.408;7.208;2023-03-01T03:30:27;100980.44;;;17.80;27.13
4410;BME280;2218;51.408;7.208;2023-03-01T03:32:57;100981.31;;;17.80;27.03
4410;BME280;2218;51.408;7.208;2023-03-01T03:35:27;100982.16;;;17.81;27.25
4410;BME280;2218;51.408;7.208;2023-03-01T03:37:57;100974.19;;;17.82;27.21
4410;BME280;2218;51.408;7.208;2023-03-01T03:40:34;100976.84;;;17.82;27.15
4410;BME280;2218;51.408;7.208;2023-03-01T03:43:02;100974.19;;;17.82;26.90
4410;BME280;2218;51.408;7.208;2023-03-01T03:45:30;100976.84;;;17.82;27.02
4410;BME280;2218;51.408;7.208;2023-03-01T03:47:58;100968.94;;;17.82;26.99
4410;BME280;2218;51.408;7.208;2023-03-01T03:50:26;100968.09;;;17.82;27.06
4410;BME280;2218;51.408;7.208;2023-03-01T03:52:53;100961.97;;;17.81;27.00
4410;BME280;2218;51.408;7.208;2023-03-01T03:55:20;100954.94;;;17.82;27.09
4410;BME280;2218;51.408;7.208;2023-03-01T03:57:48;100946.03;;;17.85;27.01
4410;BME280;2218;51.408;7.208;2023-03-01T04:00:20;100946.97;;;17.83;26.91
4410;BME280;2218;51.408;7.208;2023-03-01T04:02:49;100939.09;;;17.83;27.23
4410;BME280;2218;51.408;7.208;2023-03-01T04:05:18;100932.03;;;17.84;27.47
4410;BME280;2218;51.408;7.208;2023-03-01T04:07:46;100932.13;;;17.82;26.98
4410;BME280;2218;51.408;7.208;2023-03-01T04:10:15;100939.00;;;17.85;27.07
4410;BME280;2218;51.408;7.208;2023-03-01T04:12:42;100941.59;;;17.87;26.91
4410;BME280;2218;51.408;7.208;2023-03-01T04:15:11;100946.84;;;17.87;26.73
4410;BME280;2218;51.408;7.208;2023-03-01T04:17:43;100950.34;;;17.87;26.84
4410;BME280;2218;51.408;7.208;2023-03-01T04:20:14;100953.88;;;17.86;26.91
4410;BME280;2218;51.408;7.208;2023-03-01T04:22:44;100945.94;;;17.88;27.17
4410;BME280;2218;51.408;7.208;2023-03-01T04:25:12;100958.16;;;17.89;27.03
4410;BME280;2218;51.408;7.208;2023-03-01T04:27:40;100954.66;;;17.88;26.88
4410;BME280;2218;51.408;7.208;2023-03-01T04:30:09;100958.22;;;17.87;26.97
4410;BME280;2218;51.408;7.208;2023-03-01T04:32:36;100959.16;;;17.86;26.79
4410;BME280;2218;51.408;7.208;2023-03-01T04:35:04;100957.28;;;17.88;26.81
4410;BME280;2218;51.408;7.208;2023-03-01T04:37:32;100950.25;;;17.89;26.97
4410;BME280;2218;51.408;7.208;2023-03-01T04:40:00;100949.47;;;17.87;26.64
4410;BME280;2218;51.408;7.208;2023-03-01T04:42:33;100944.22;;;17.87;26.76
4410;BME280;2218;51.408;7.208;2023-03-01T04:45:00;100950.25;;;17.89;26.72
4410;BME280;2218;51.408;7.208;2023-03-01T04:47:27;100945.84;;;17.89;26.82
4410;BME280;2218;51.408;7.208;2023-03-01T04:49:54;100943.16;;;17.91;27.14
4410;BME280;2218;51.408;7.208;2023-03-01T04:52:21;100946.78;;;17.88;26.82
4410;BME280;2218;51.408;7.208;2023-03-01T04:54:50;100945.00;;;17.89;26.81
4410;BME280;2218;51.408;7.208;2023-03-01T04:57:17;100945.00;;;17.89;26.86
4410;BME280;2218;51.408;7.208;2023-03-01T04:59:44;100946.69;;;17.90;26.92
4410;BME280;2218;51.408;7.208;2023-03-01T05:02:11;100950.25;;;17.89;26.83
4410;BME280;2218;51.408;7.208;2023-03-01T05:04:38;100942.31;;;17.90;26.48
4410;BME280;2218;51.408;7.208;2023-03-01T05:07:05;100942.31;;;17.90;26.79
4410;BME280;2218;51.408;7.208;2023-03-01T05:09:32;100951.06;;;17.91;26.51
4410;BME280;2218;51.408;7.208;2023-03-01T05:12:00;100943.94;;;17.93;26.72
4410;BME280;2218;51.408;7.208;2023-03-01T05:14:27;100948.28;;;17.94;26.88
4410;BME280;2218;51.408;7.208;2023-03-01T05:16:54;100942.91;;;17.97;26.77
4410;BME280;2218;51.408;7.208;2023-03-01T05:19:21;100949.72;;;18.01;26.81
4410;BME280;2218;51.408;7.208;2023-03-01T05:21:48;100948.81;;;18.02;26.52
4410;BME280;2218;51.408;7.208;2023-03-01T05:24:33;100944.19;;;18.07;26.50
4410;BME280;2218;51.408;7.208;2023-03-01T05:27:03;100944.06;;;18.10;26.26
4410;BME280;2218;51.408;7.208;2023-03-01T05:29:31;100949.97;;;18.15;26.48
4410;BME280;2218;51.408;7.208;2023-03-01T05:32:02;100938.53;;;18.16;26.27
4410;BME280;2218;51.408;7.208;2023-03-01T05:34:32;100940.22;;;18.17;26.40
4410;BME280;2218;51.408;7.208;2023-03-01T05:37:00;100929.63;;;18.19;26.34
4410;BME280;2218;51.408;7.208;2023-03-01T05:39:29;100925.16;;;18.21;26.21
4410;BME280;2218;51.408;7.208;2023-03-01T05:41:59;100934.84;;;18.20;26.08
4410;BME280;2218;51.408;7.208;2023-03-01T05:44:29;100933.91;;;18.21;26.43
4410;BME280;2218;51.408;7.208;2023-03-01T05:46:56;100936.53;;;18.21;26.25
4410;BME280;2218;51.408;7.208;2023-03-01T05:49:24;100936.53;;;18.21;26.10
4410;BME280;2218;51.408;7.208;2023-03-01T05:51:52;100932.97;;;18.22;26.06
4410;BME280;2218;51.408;7.208;2023-03-01T05:54:21;100931.13;;;18.24;26.37
4410;BME280;2218;51.408;7.208;2023-03-01T05:56:48;100936.38;;;18.24;26.23
4410;BME280;2218;51.408;7.208;2023-03-01T05:59:15;100926.84;;;18.22;26.39
4410;BME280;2218;51.408;7.208;2023-03-01T06:01:44;100926.00;;;18.21;26.45
4410;BME280;2218;51.408;7.208;2023-03-01T06:04:10;100927.84;;;18.19;26.08
4410;BME280;2218;51.408;7.208;2023-03-01T06:06:38;100928.78;;;18.18;26.34
4410;BME280;2218;51.408;7.208;2023-03-01T06:09:05;100926.13;;;18.18;25.98
4410;BME280;2218;51.408;7.208;2023-03-01T06:11:35;100926.00;;;18.21;26.24
4410;BME280;2218;51.408;7.208;2023-03-01T06:14:04;100931.31;;;18.20;26.33
4410;BME280;2218;51.408;7.208;2023-03-01T06:16:33;100926.84;;;18.22;26.24
4410;BME280;2218;51.408;7.208;2023-03-01T06:19:01;100937.47;;;18.20;26.43
4410;BME280;2218;51.408;7.208;2023-03-01T06:21:28;100933.91;;;18.21;26.33
4410;BME280;2218;51.408;7.208;2023-03-01T06:23:55;100930.44;;;18.21;26.33
4410;BME280;2218;51.408;7.208;2023-03-01T06:26:22;100935.69;;;18.21;25.96
4410;BME280;2218;51.408;7.208;2023-03-01T06:28:49;100929.41;;;18.23;26.01
4410;BME280;2218;51.408;7.208;2023-03-01T06:31:16;100928.44;;;18.26;26.14
4410;BME280;2218;51.408;7.208;2023-03-01T06:33:43;100921.22;;;18.29;26.06
4410;BME280;2218;51.408;7.208;2023-03-01T06:36:11;100915.97;;;18.29;26.37
4410;BME280;2218;51.408;7.208;2023-03-01T06:38:38;100922.03;;;18.31;25.93
4410;BME280;2218;51.408;7.208;2023-03-01T06:41:06;100919.41;;;18.31;26.03
4410;BME280;2218;51.408;7.208;2023-03-01T06:43:33;100929.84;;;18.33;25.89
4410;BME280;2218;51.408;7.208;2023-03-01T06:46:03;100927.13;;;18.34;26.08
4410;BME280;2218;51.408;7.208;2023-03-01T06:48:30;100929.63;;;18.38;25.91
4410;BME280;2218;51.408;7.208;2023-03-01T06:50:58;100931.34;;;18.39;25.79
4410;BME280;2218;51.408;7.208;2023-03-01T06:53:27;100928.56;;;18.42;25.70
4410;BME280;2218;51.408;7.208;2023-03-01T06:55:55;100924.16;;;18.42;26.20
4410;BME280;2218;51.408;7.208;2023-03-01T06:58:22;100923.16;;;18.45;26.20
4410;BME280;2218;51.408;7.208;2023-03-01T07:00:50;100916.06;;;18.47;26.04
4410;BME280;2218;51.408;7.208;2023-03-01T07:03:17;100915.91;;;18.50;25.70
4410;BME280;2218;51.408;7.208;2023-03-01T07:05:44;100917.47;;;18.54;25.85
4410;BME280;2218;51.408;7.208;2023-03-01T07:08:11;100918.25;;;18.56;25.70
4410;BME280;2218;51.408;7.208;2023-03-01T07:10:39;100918.03;;;18.60;26.17
4410;BME280;2218;51.408;7.208;2023-03-01T07:13:06;100904.72;;;18.64;25.75
4410;BME280;2218;51.408;7.208;2023-03-01T07:15:33;100907.28;;;18.65;25.87
4410;BME280;2218;51.408;7.208;2023-03-01T07:18:00;100906.38;;;18.66;25.98
4410;BME280;2218;51.408;7.208;2023-03-01T07:20:27;100906.22;;;18.69;25.95
4410;BME280;2218;51.408;7.208;2023-03-01T07:22:55;100906.19;;;18.71;26.00
4410;BME280;2218;51.408;7.208;2023-03-01T07:25:24;100910.44;;;18.73;26.18
4410;BME280;2218;51.408;7.208;2023-03-01T07:27:53;100905.97;;;18.75;25.90
4410;BME280;2218;51.408;7.208;2023-03-01T07:30:21;100905.97;;;18.75;26.04
4410;BME280;2218;51.408;7.208;2023-03-01T07:32:48;100905.03;;;18.76;25.85
4410;BME280;2218;51.408;7.208;2023-03-01T07:35:15;100902.22;;;18.79;26.01
4410;BME280;2218;51.408;7.208;2023-03-01T07:37:42;100894.28;;;18.81;25.78
4410;BME280;2218;51.408;7.208;2023-03-01T07:40:11;100877.53;;;18.82;26.11
4410;BME280;2218;51.408;7.208;2023-03-01T07:42:38;100879.16;;;18.84;25.84
4410;BME280;2218;51.408;7.208;2023-03-01T07:45:08;100878.25;;;18.85;25.89
4410;BME280;2218;51.408;7.208;2023-03-01T07:47:35;100877.31;;;18.87;26.25
4410;BME280;2218;51.408;7.208;2023-03-01T07:50:03;100880.72;;;18.89;26.16
4410;BME280;2218;51.408;7.208;2023-03-01T07:52:31;100883.34;;;18.89;26.58
4410;BME280;2218;51.408;7.208;2023-03-01T07:54:58;100879.00;;;18.88;26.05
4410;BME280;2218;51.408;7.208;2023-03-01T07:57:25;100889.53;;;18.88;26.19
4410;BME280;2218;51.408;7.208;2023-03-01T07:59:52;100885.22;;;18.87;26.50
4410;BME280;2218;51.408;7.208;2023-03-01T08:02:20;100879.09;;;18.86;26.39
4410;BME280;2218;51.408;7.208;2023-03-01T08:04:47;100887.00;;;18.86;26.78
4410;BME280;2218;51.408;7.208;2023-03-01T08:07:14;100884.41;;;18.84;26.79
4410;BME280;2218;51.408;7.208;2023-03-01T08:09:41;100880.03;;;18.85;26.60
4410;BME280;2218;51.408;7.208;2023-03-01T08:12:08;100886.19;;;18.84;26.96
4410;BME280;2218;51.408;7.208;2023-03-01T08:14:35;100884.41;;;18.84;26.75
4410;BME280;2218;51.408;7.208;2023-03-01T08:17:01;100887.06;;;18.84;26.85
4410;BME280;2218;51.408;7.208;2023-03-01T08:19:31;100894.09;;;18.84;26.84
4410;BME280;2218;51.408;7.208;2023-03-01T08:21:58;100883.50;;;18.85;27.27
4410;BME280;2218;51.408;7.208;2023-03-01T08:24:25;100883.56;;;18.84;27.28
4410;BME280;2218;51.408;7.208;2023-03-01T08:26:53;100891.56;;;18.82;26.80
4410;BME280;2218;51.408;7.208;2023-03-01T08:29:21;100889.84;;;18.81;26.99
4410;BME280;2218;51.408;7.208;2023-03-01T08:31:50;100885.53;;;18.80;26.89
4410;BME280;2218;51.408;7.208;2023-03-01T08:34:18;100887.22;;;18.81;26.93
4410;BME280;2218;51.408;7.208;2023-03-01T08:36:47;100877.63;;;18.80;27.29
4410;BME280;2218;51.408;7.208;2023-03-01T08:39:16;100878.47;;;18.81;27.30
4410;BME280;2218;51.408;7.208;2023-03-01T08:41:44;100873.19;;;18.81;27.37
4410;BME280;2218;51.408;7.208;2023-03-01T08:44:13;100874.97;;;18.80;27.31
4410;BME280;2218;51.408;7.208;2023-03-01T08:46:43;100863.50;;;18.81;27.37
4410;BME280;2218;51.408;7.208;2023-03-01T08:49:14;100874.91;;;18.82;27.56
4410;BME280;2218;51.408;7.208;2023-03-01T08:51:42;100865.28;;;18.81;27.51
4410;BME280;2218;51.408;7.208;2023-03-01T08:54:14;100867.97;;;18.79;27.28
4410;BME280;2218;51.408;7.208;2023-03-01T08:56:42;100865.34;;;18.79;27.50
4410;BME280;2218;51.408;7.208;2023-03-01T08:59:10;100867.13;;;18.79;27.27
4410;BME280;2218;51.408;7.208;2023-03-01T09:01:37;100861.03;;;18.78;27.20
4410;BME280;2218;51.408;7.208;2023-03-01T09:04:06;100861.19;;;18.75;26.83
4410;BME280;2218;51.408;7.208;2023-03-01T09:06:33;100860.09;;;18.79;26.84
4410;BME280;2218;51.408;7.208;2023-03-01T09:09:02;100858.38;;;18.78;26.70
4410;BME280;2218;51.408;7.208;2023-03-01T09:11:30;100851.28;;;18.80;26.55
4410;BME280;2218;51.408;7.208;2023-03-01T09:13:57;100855.69;;;18.80;26.49
4410;BME280;2218;51.408;7.208;2023-03-01T09:16:24;100861.81;;;18.80;26.38
4410;BME280;2218;51.408;7.208;2023-03-01T09:18:53;100861.94;;;18.77;26.30
4410;BME280;2218;51.408;7.208;2023-03-01T09:21:23;100862.09;;;18.74;26.19
4410;BME280;2218;51.408;7.208;2023-03-01T09:23:50;100860.34;;;18.75;26.20
4410;BME280;2218;51.408;7.208;2023-03-01T09:26:19;100861.25;;;18.74;25.85
4410;BME280;2218;51.408;7.208;2023-03-01T09:28:51;100857.75;;;18.73;26.02
4410;BME280;2218;51.408;7.208;2023-03-01T09:31:21;100849.84;;;18.73;26.35
4410;BME280;2218;51.408;7.208;2023-03-01T09:33:50;100837.63;;;18.72;26.02
4410;BME280;2218;51.408;7.208;2023-03-01T09:36:20;100835.94;;;18.71;26.19
4410;BME280;2218;51.408;7.208;2023-03-01T09:38:48;100829.81;;;18.71;26.00
4410;BME280;2218;51.408;7.208;2023-03-01T09:41:36;100836.84;;;18.70;25.86
4410;BME280;2218;51.408;7.208;2023-03-01T09:44:18;100836.91;;;18.69;25.82
4410;BME280;2218;51.408;7.208;2023-03-01T09:46:47;100846.59;;;18.68;25.80
4410;BME280;2218;51.408;7.208;2023-03-01T09:49:18;100838.69;;;18.68;25.73
4410;BME280;2218;51.408;7.208;2023-03-01T09:51:56;100836.13;;;18.67;25.71
4410;BME280;2218;51.408;7.208;2023-03-01T09:54:24;100835.19;;;18.68;25.64
4410;BME280;2218;51.408;7.208;2023-03-01T09:57:07;100830.00;;;18.66;25.78
4410;BME280;2218;51.408;7.208;2023-03-01T09:59:56;100829.16;;;18.66;25.45
4410;BME280;2218;51.408;7.208;2023-03-01T10:02:35;100828.31;;;18.65;25.45
4410;BME280;2218;51.408;7.208;2023-03-01T10:05:19;100822.09;;;18.66;25.20
4410;BME280;2218;51.408;7.208;2023-03-01T10:08:02;100822.09;;;18.66;25.12
4410;BME280;2218;51.408;7.208;2023-03-01T10:10:36;100820.31;;;18.67;25.15
4410;BME280;2218;51.408;7.208;2023-03-01T10:13:16;100822.00;;;18.68;25.02
4410;BME280;2218;51.408;7.208;2023-03-01T10:15:50;100821.97;;;18.69;24.94
4410;BME280;2218;51.408;7.208;2023-03-01T10:18:24;100823.69;;;18.70;25.17
4410;BME280;2218;51.408;7.208;2023-03-01T10:20:56;100816.69;;;18.69;24.79
4410;BME280;2218;51.408;7.208;2023-03-01T10:23:25;100818.53;;;18.67;24.86
4410;BME280;2218;51.408;7.208;2023-03-01T10:26:12;100824.59;;;18.69;24.95
4410;BME280;2218;51.408;7.208;2023-03-01T10:28:56;100822.66;;;18.73;25.00
4410;BME280;2218;51.408;7.208;2023-03-01T10:31:39;100820.03;;;18.73;25.10
4410;BME280;2218;51.408;7.208;2023-03-01T10:34:13;100804.31;;;18.71;25.25
4410;BME280;2218;51.408;7.208;2023-03-01T10:36:46;100801.69;;;18.71;25.25
4410;BME280;2218;51.408;7.208;2023-03-01T10:39:18;100808.75;;;18.71;25.03
4410;BME280;2218;51.408;7.208;2023-03-01T10:41:58;100807.03;;;18.70;25.42
4410;BME280;2218;51.408;7.208;2023-03-01T10:44:43;100809.69;;;18.70;25.43
4410;BME280;2218;51.408;7.208;2023-03-01T10:47:19;100799.19;;;18.68;25.13
4410;BME280;2218;51.408;7.208;2023-03-01T10:50:03;100786.03;;;18.68;25.03
4410;BME280;2218;51.408;7.208;2023-03-01T10:52:34;100779.03;;;18.67;25.33
4410;BME280;2218;51.408;7.208;2023-03-01T10:55:24;100781.66;;;18.67;24.65
4410;BME280;2218;51.408;7.208;2023-03-01T10:58:16;100785.97;;;18.70;25.23
4410;BME280;2218;51.408;7.208;2023-03-01T11:00:51;100782.53;;;18.68;25.05
4410;BME280;2218;51.408;7.208;2023-03-01T11:03:23;100767.66;;;18.67;24.97
4410;BME280;2218;51.408;7.208;2023-03-01T11:06:01;100783.41;;;18.68;24.90
4410;BME280;2218;51.408;7.208;2023-03-01T11:08:34;100764.16;;;18.66;25.16
4410;BME280;2218;51.408;7.208;2023-03-01T11:11:22;100766.81;;;18.66;24.73
4410;BME280;2218;51.408;7.208;2023-03-01T11:13:57;100771.22;;;18.66;24.79
4410;BME280;2218;51.408;7.208;2023-03-01T11:16:36;100757.97;;;18.67;25.04
4410;BME280;2218;51.408;7.208;2023-03-01T11:19:17;100757.06;;;18.68;24.70
4410;BME280;2218;51.408;7.208;2023-03-01T11:21:55;100754.44;;;18.68;24.77
4410;BME280;2218;51.408;7.208;2023-03-01T11:24:31;100751.81;;;18.68;24.80
4410;BME280;2218;51.408;7.208;2023-03-01T11:27:04;100757.91;;;18.69;24.67
4410;BME280;2218;51.408;7.208;2023-03-01T11:29:41;100736.00;;;18.68;24.48
4410;BME280;2218;51.408;7.208;2023-03-01T11:32:13;100748.22;;;18.69;24.64
4410;BME280;2218;51.408;7.208;2023-03-01T11:34:47;100742.97;;;18.69;24.67
4410;BME280;2218;51.408;7.208;2023-03-01T11:37:28;100743.75;;;18.71;24.79
4410;BME280;2218;51.408;7.208;2023-03-01T11:40:11;100729.75;;;18.71;24.60
4410;BME280;2218;51.408;7.208;2023-03-01T11:42:53;100737.56;;;18.72;24.39
4410;BME280;2218;51.408;7.208;2023-03-01T11:45:26;100736.63;;;18.73;24.37
4410;BME280;2218;51.408;7.208;2023-03-01T11:48:19;100740.94;;;18.74;24.59
4410;BME280;2218;51.408;7.208;2023-03-01T11:50:57;100736.63;;;18.73;24.54
4410;BME280;2218;51.408;7.208;2023-03-01T11:53:48;100739.25;;;18.73;24.32
4410;BME280;2218;51.408;7.208;2023-03-01T11:56:29;100743.66;;;18.73;24.23
4410;BME280;2218;51.408;7.208;2023-03-01T11:59:28;100735.69;;;18.74;24.62
4410;BME280;2218;51.408;7.208;2023-03-01T12:02:27;100733.97;;;18.73;24.53
4410;BME280;2218;51.408;7.208;2023-03-01T12:05:49;100731.34;;;18.73;24.35
4410;BME280;2218;51.408;7.208;2023-03-01T12:08:31;100732.28;;;18.72;24.35
4410;BME280;2218;51.408;7.208;2023-03-01T12:11:16;100727.88;;;18.73;24.57
4410;BME280;2218;51.408;7.208;2023-03-01T12:14:13;100716.34;;;18.75;24.46
4410;BME280;2218;51.408;7.208;2023-03-01T12:17:15;100725.94;;;18.76;24.84
4410;BME280;2218;51.408;7.208;2023-03-01T12:20:12;100717.25;;;18.74;24.85
4410;BME280;2218;51.408;7.208;2023-03-01T12:22:59;100718.13;;;18.75;25.03
4410;BME280;2218;51.408;7.208;2023-03-01T12:25:38;100704.09;;;18.74;24.96
4410;BME280;2218;51.408;7.208;2023-03-01T12:28:39;100698.81;;;18.74;25.08
4410;BME280;2218;51.408;7.208;2023-03-01T12:31:34;100698.81;;;18.74;25.06
4410;BME280;2218;51.408;7.208;2023-03-01T12:34:23;100698.81;;;18.74;25.08
4410;BME280;2218;51.408;7.208;2023-03-01T12:37:17;100687.44;;;18.74;25.49
4410;BME280;2218;51.408;7.208;2023-03-01T12:40:10;100688.28;;;18.74;25.34
4410;BME280;2218;51.408;7.208;2023-03-01T12:42:54;100683.00;;;18.74;25.52
4410;BME280;2218;51.408;7.208;2023-03-01T12:45:45;100690.06;;;18.74;25.39
4410;BME280;2218;51.408;7.208;2023-03-01T12:48:31;100680.38;;;18.74;25.49
4410;BME280;2218;51.408;7.208;2023-03-01T12:51:06;100674.22;;;18.75;25.74
4410;BME280;2218;51.408;7.208;2023-03-01T12:53:41;100673.28;;;18.76;25.78
4410;BME280;2218;51.408;7.208;2023-03-01T12:56:12;100677.59;;;18.77;25.56
4410;BME280;2218;51.408;7.208;2023-03-01T12:58:54;100677.59;;;18.77;26.02
4410;BME280;2218;51.408;7.208;2023-03-01T13:01:41;100674.97;;;18.77;26.07
4410;BME280;2218;51.408;7.208;2023-03-01T13:04:34;100672.25;;;18.79;25.68
4410;BME280;2218;51.408;7.208;2023-03-01T13:07:19;100668.75;;;18.78;26.04
4410;BME280;2218;51.408;7.208;2023-03-01T13:10:03;100661.72;;;18.79;26.39
4410;BME280;2218;51.408;7.208;2023-03-01T13:12:50;100657.38;;;18.78;26.08
4410;BME280;2218;51.408;7.208;2023-03-01T13:15:34;100663.50;;;18.78;26.01
4410;BME280;2218;51.408;7.208;2023-03-01T13:18:11;100659.16;;;18.77;26.24
4410;BME280;2218;51.408;7.208;2023-03-01T13:20:52;100651.28;;;18.77;26.40
4410;BME280;2218;51.408;7.208;2023-03-01T13:23:27;100645.16;;;18.77;26.36
4410;BME280;2218;51.408;7.208;2023-03-01T13:26:14;100648.63;;;18.77;26.22
4410;BME280;2218;51.408;7.208;2023-03-01T13:28:55;100652.13;;;18.78;26.30
4410;BME280;2218;51.408;7.208;2023-03-01T13:32:00;100653.91;;;18.77;26.47
4410;BME280;2218;51.408;7.208;2023-03-01T13:34:58;100653.91;;;18.77;26.51
4410;BME280;2218;51.408;7.208;2023-03-01T13:37:36;100646.00;;;18.77;26.51
4410;BME280;2218;51.408;7.208;2023-03-01T13:43:30;100646.00;;;18.77;26.66